createdAt,value
2023-01-15T00:02:47.202Z,1.3
2023-01-15T00:05:47.208Z,1.5
2023-01-15T00:08:47.191Z,1.4
2023-01-15T00:11:47.194Z,1.6
2023-01-15T00:14:47.191Z,1.6
2023-01-15T00:17:47.197Z,1.2
2023-01-15T00:20:47.202Z,1.5
2023-01-15T00:23:47.207Z,1.2
2023-01-15T00:26:47.212Z,1.8
2023-01-15T00:29:47.219Z,1.5
2023-01-15T00:32:47.230Z,1.6
2023-01-15T00:35:47.227Z,1.8
2023-01-15T00:38:47.242Z,1.6
2023-01-15T00:41:47.245Z,1.5
2023-01-15T00:44:47.258Z,0.9
2023-01-15T00:47:47.268Z,1.1
2023-01-15T00:50:47.277Z,1.1
2023-01-15T00:53:47.291Z,1.2
2023-01-15T00:56:47.311Z,1.3
2023-01-15T00:59:47.310Z,1.2
2023-01-15T01:02:47.356Z,1.5
2023-01-15T01:05:47.337Z,2.7
2023-01-15T01:08:47.355Z,2.5
2023-01-15T01:11:47.357Z,3.1
2023-01-15T01:14:47.371Z,2
2023-01-15T01:17:47.376Z,2.2
2023-01-15T01:20:47.394Z,1.9
2023-01-15T01:23:47.414Z,1.7
2023-01-15T01:26:47.420Z,1.8
2023-01-15T01:29:47.446Z,2.3
2023-01-15T01:32:47.441Z,2.9
2023-01-15T01:35:47.452Z,2.1
2023-01-15T01:38:47.466Z,2.6
2023-01-15T01:41:47.478Z,2
2023-01-15T01:44:47.491Z,2.6
2023-01-15T01:47:47.508Z,2.4
2023-01-15T01:50:47.516Z,3.5
2023-01-15T01:53:47.529Z,2.6
2023-01-15T01:56:47.539Z,2.1
2023-01-15T01:59:47.548Z,1.8
2023-01-15T02:02:47.623Z,2.9
2023-01-15T02:05:47.584Z,2.4
2023-01-15T02:08:47.598Z,1.8
2023-01-15T02:11:47.616Z,2
2023-01-15T02:14:47.617Z,2.9
2023-01-15T02:17:47.657Z,2.5
2023-01-15T02:20:47.658Z,2.9
2023-01-15T02:23:47.690Z,2.2
2023-01-15T02:26:47.673Z,2.5
2023-01-15T02:29:47.691Z,1.8
2023-01-15T02:32:47.705Z,3.5
2023-01-15T02:35:47.718Z,2.9
2023-01-15T02:38:47.742Z,2.1
2023-01-15T02:41:47.744Z,2.6
2023-01-15T02:44:47.762Z,3
2023-01-15T02:47:47.775Z,3.3
2023-01-15T02:50:47.788Z,2.2
2023-01-15T02:53:47.804Z,2.7
2023-01-15T02:56:47.820Z,2.7
2023-01-15T02:59:47.831Z,2.8
2023-01-15T03:02:47.909Z,2.8
2023-01-15T03:05:47.862Z,2.9
2023-01-15T03:08:47.870Z,1.8
2023-01-15T03:11:47.889Z,1.8
2023-01-15T03:14:47.903Z,2.7
2023-01-15T03:17:47.915Z,2.5
2023-01-15T03:20:47.928Z,2.3
2023-01-15T03:23:47.943Z,2.3
2023-01-15T03:26:47.961Z,2.9
2023-01-15T03:29:47.978Z,2.5
2023-01-15T03:32:47.990Z,2.1
2023-01-15T03:35:48.025Z,3.3
2023-01-15T03:38:48.027Z,3.5
2023-01-15T03:41:48.048Z,2.6
2023-01-15T03:44:48.068Z,2.1
2023-01-15T03:47:48.078Z,1.6
2023-01-15T03:50:48.082Z,1.4
2023-01-15T03:53:48.113Z,1.6
2023-01-15T03:56:48.116Z,1.5
2023-01-15T03:59:48.128Z,1.2
2023-01-15T04:02:48.141Z,2.2
2023-01-15T04:05:48.159Z,1.6
2023-01-15T04:08:48.177Z,2.8
2023-01-15T04:11:48.196Z,2
2023-01-15T04:14:48.222Z,1.4
2023-01-15T04:17:48.233Z,1.1
2023-01-15T04:20:48.249Z,1.5
2023-01-15T04:23:48.269Z,0.9
2023-01-15T04:26:48.284Z,1.6
2023-01-15T04:29:48.302Z,1.2
2023-01-15T04:32:48.319Z,1.4
2023-01-15T04:35:48.335Z,2.5
2023-01-15T04:38:48.355Z,2.3
2023-01-15T04:41:48.369Z,1.9
2023-01-15T04:44:48.385Z,1.5
2023-01-15T04:47:48.404Z,1.1
2023-01-15T04:50:48.415Z,1.3
2023-01-15T04:53:48.427Z,2
2023-01-15T04:56:48.446Z,1.5
2023-01-15T04:59:48.456Z,1.9
2023-01-15T05:02:48.512Z,1.8
2023-01-15T05:05:48.488Z,1.8
2023-01-15T05:08:48.501Z,1.6
2023-01-15T05:11:48.514Z,1.5
2023-01-15T05:14:48.531Z,2.2
2023-01-15T05:17:48.559Z,1.9
2023-01-15T05:20:48.552Z,2.2
2023-01-15T05:23:48.571Z,1.3
2023-01-15T05:26:48.584Z,2.2
2023-01-15T05:29:48.593Z,2.5
2023-01-15T05:32:48.607Z,2.2
2023-01-15T05:35:48.618Z,1.5
2023-01-15T05:38:48.634Z,2.1
2023-01-15T05:41:48.694Z,2.1
2023-01-15T05:44:48.668Z,1.5
2023-01-15T05:47:48.680Z,1.8
2023-01-15T05:50:48.699Z,3.8
2023-01-15T05:53:48.712Z,1.9
2023-01-15T05:56:48.741Z,2.4
2023-01-15T05:59:48.762Z,2.8
2023-01-15T06:02:48.792Z,2.1
2023-01-15T06:05:48.780Z,2.3
2023-01-15T06:08:48.803Z,1.6
2023-01-15T06:11:48.813Z,2.9
2023-01-15T06:14:48.825Z,3.4
2023-01-15T06:17:48.847Z,2
2023-01-15T06:20:48.862Z,2.1
2023-01-15T06:23:48.884Z,2.8
2023-01-15T06:26:48.902Z,2.8
2023-01-15T06:29:48.923Z,2.6
2023-01-15T06:32:48.933Z,2.4
2023-01-15T06:35:48.947Z,4.1
2023-01-15T06:38:48.985Z,3
2023-01-15T06:41:48.989Z,2.6
2023-01-15T06:44:49.003Z,3.3
2023-01-15T06:47:49.016Z,3.6
2023-01-15T06:50:49.035Z,3.2
2023-01-15T06:53:49.061Z,4.2
2023-01-15T06:56:49.067Z,3.5
2023-01-15T06:59:49.183Z,3.3
2023-01-15T07:02:49.114Z,4.2
2023-01-15T07:05:49.127Z,3.8
2023-01-15T07:08:49.148Z,3.4
2023-01-15T07:11:49.208Z,3.1
2023-01-15T07:14:49.178Z,3.9
2023-01-15T07:17:49.200Z,4.1
2023-01-15T07:20:49.216Z,3.6
2023-01-15T07:23:49.235Z,4.6
2023-01-15T07:26:49.256Z,3.5
2023-01-15T07:29:49.273Z,4.9
2023-01-15T07:32:49.289Z,4.8
2023-01-15T07:35:49.311Z,5
2023-01-15T07:38:49.323Z,5.3
2023-01-15T07:41:49.348Z,4.4
2023-01-15T07:44:49.360Z,4.9
2023-01-15T07:47:49.379Z,3.7
2023-01-15T07:50:49.405Z,5.9
2023-01-15T07:53:49.421Z,5.5
2023-01-15T07:56:49.436Z,5.4
2023-01-15T07:59:49.457Z,5.2
2023-01-15T08:02:49.486Z,4.2
2023-01-15T08:05:49.498Z,5.3
2023-01-15T08:08:49.513Z,6.1
2023-01-15T08:11:49.531Z,4.3
2023-01-15T08:14:49.552Z,6.1
2023-01-15T08:17:49.572Z,4
2023-01-15T08:20:49.603Z,4.8
2023-01-15T08:23:49.628Z,5.3
2023-01-15T08:26:49.677Z,6.8
2023-01-15T08:29:49.654Z,3.9
2023-01-15T08:32:49.671Z,4.9
2023-01-15T08:35:49.696Z,7.4
2023-01-15T08:38:49.715Z,6.2
2023-01-15T08:41:49.727Z,3.6
2023-01-15T08:44:49.744Z,5
2023-01-15T08:47:49.759Z,5.3
2023-01-15T08:50:49.791Z,4.4
2023-01-15T08:53:49.803Z,3.6
2023-01-15T08:56:49.914Z,3.9
2023-01-15T08:59:49.849Z,4.3
2023-01-15T09:02:50.296Z,5.4
2023-01-15T09:05:49.879Z,5.1
2023-01-15T09:08:49.910Z,6
2023-01-15T09:11:49.922Z,4.1
2023-01-15T09:14:56.420Z,5
2023-01-15T09:17:49.956Z,4.8
2023-01-15T09:20:49.979Z,5.1
2023-01-15T09:23:50.023Z,3.8
2023-01-15T09:26:50.018Z,4.2
2023-01-15T09:29:50.042Z,5.2
2023-01-15T09:32:50.050Z,3.8
2023-01-15T09:35:50.067Z,3.5
2023-01-15T09:38:50.092Z,3.8
2023-01-15T09:41:50.112Z,5.7
2023-01-15T09:44:50.129Z,4.7
2023-01-15T09:47:50.146Z,4.1
2023-01-15T09:50:50.170Z,4.7
2023-01-15T09:53:50.194Z,3.9
2023-01-15T09:56:50.216Z,4.5
2023-01-15T09:59:50.227Z,4
2023-01-15T10:02:50.253Z,5.4
2023-01-15T10:05:50.330Z,5.2
2023-01-15T10:08:50.269Z,5.5
2023-01-15T10:11:50.275Z,3.8
2023-01-15T10:14:50.313Z,3.2
2023-01-15T10:17:50.308Z,5.8
2023-01-15T10:20:50.338Z,4.3
2023-01-15T10:23:50.328Z,3.6
2023-01-15T10:26:50.341Z,5.7
2023-01-15T10:29:50.350Z,4
2023-01-15T10:33:02.235Z,3.9
2023-01-15T10:35:50.378Z,3.9
2023-01-15T10:38:50.392Z,4.9
2023-01-15T10:41:50.405Z,4.6
2023-01-15T10:44:50.410Z,2.8
2023-01-15T10:47:50.423Z,6.6
2023-01-15T10:50:50.448Z,2.9
2023-01-15T10:53:50.476Z,2.9
2023-01-15T10:56:50.475Z,4.4
2023-01-15T10:59:50.504Z,6.2
2023-01-15T11:02:50.564Z,3.1
2023-01-15T11:05:50.525Z,2.3
2023-01-15T11:09:11.642Z,2.5
2023-01-15T11:11:50.563Z,2.7
2023-01-15T11:14:50.578Z,2.3
2023-01-15T11:17:50.598Z,2.2
2023-01-15T11:20:50.607Z,2.6
2023-01-15T11:23:50.626Z,2.9
2023-01-15T11:26:50.643Z,3.3
2023-01-15T11:29:50.666Z,3.1
2023-01-15T11:32:50.683Z,2.8
2023-01-15T11:35:50.764Z,4
2023-01-15T11:38:50.704Z,3.1
2023-01-15T11:41:50.721Z,3.2
2023-01-15T11:44:50.729Z,2.7
2023-01-15T11:47:50.775Z,2.7
2023-01-15T11:50:50.771Z,4.3
2023-01-15T11:53:50.773Z,3.4
2023-01-15T11:56:50.794Z,3
2023-01-15T11:59:50.803Z,2
2023-01-15T12:02:50.883Z,3.8
2023-01-15T12:05:50.838Z,3.7
2023-01-15T12:08:50.854Z,3.5
2023-01-15T12:11:50.858Z,3.3
2023-01-15T12:14:50.868Z,3.1
2023-01-15T12:17:50.885Z,3.3
2023-01-15T12:20:50.901Z,3.6
2023-01-15T12:23:50.907Z,3.4
2023-01-15T12:26:50.924Z,3.7
2023-01-15T12:29:50.940Z,3.6
2023-01-15T12:32:50.958Z,4
2023-01-15T12:35:50.980Z,3
2023-01-15T12:38:50.992Z,4.2
2023-01-15T12:41:51.009Z,4.6
2023-01-15T12:44:51.009Z,3.4
2023-01-15T12:47:51.024Z,3.8
2023-01-15T12:50:51.046Z,4.1
2023-01-15T12:53:51.074Z,3.2
2023-01-15T12:56:51.057Z,3.4
2023-01-15T12:59:51.072Z,3.2
2023-01-15T13:02:52.241Z,3.3
2023-01-15T13:05:51.091Z,3.6
2023-01-15T13:08:51.115Z,3.3
2023-01-15T13:11:51.123Z,5.2
2023-01-15T13:14:51.132Z,3.6
2023-01-15T13:17:51.148Z,3.9
2023-01-15T13:20:51.169Z,3.1
2023-01-15T13:23:51.170Z,3.6
2023-01-15T13:26:51.182Z,3.3
2023-01-15T13:29:51.200Z,4
2023-01-15T13:32:51.202Z,3.4
2023-01-15T13:35:51.216Z,4.3
2023-01-15T13:38:51.227Z,4.2
2023-01-15T13:41:51.265Z,2.7
2023-01-15T13:44:51.267Z,4
2023-01-15T13:47:51.274Z,3.2
2023-01-15T13:50:51.277Z,2.8
2023-01-15T13:53:51.292Z,3.5
2023-01-15T13:56:51.315Z,3.5
2023-01-15T13:59:51.313Z,3.7
2023-01-15T14:02:51.379Z,3.9
2023-01-15T14:05:51.340Z,3
2023-01-15T14:08:51.350Z,3.5
2023-01-15T14:11:51.363Z,4.1
2023-01-15T14:14:51.380Z,3.1
2023-01-15T14:17:51.390Z,4.2
2023-01-15T14:20:51.402Z,5.2
2023-01-15T14:23:51.409Z,4.2
2023-01-15T14:26:51.430Z,4.3
2023-01-15T14:29:51.455Z,5.3
2023-01-15T14:32:51.453Z,4.6
2023-01-15T14:35:51.460Z,4.7
2023-01-15T14:38:51.485Z,5.8
2023-01-15T14:41:51.493Z,3.5
2023-01-15T14:44:51.504Z,4.8
2023-01-15T14:47:51.516Z,4.2
2023-01-15T14:50:51.529Z,4.7
2023-01-15T14:53:51.546Z,3.3
2023-01-15T14:56:51.564Z,3.6
2023-01-15T14:59:51.572Z,5.7
2023-01-15T15:02:51.598Z,5.3
2023-01-15T15:05:51.599Z,4
2023-01-15T15:08:51.618Z,5.1
2023-01-15T15:11:51.637Z,4.7
2023-01-15T15:14:51.645Z,3.7
2023-01-15T15:17:51.657Z,5.2
2023-01-15T15:20:51.664Z,5.2
2023-01-15T15:23:51.679Z,5
2023-01-15T15:26:51.699Z,3.7
2023-01-15T15:29:51.715Z,4.7
2023-01-15T15:32:51.729Z,3.8
2023-01-15T15:35:51.743Z,3.2
2023-01-15T15:38:51.750Z,4.3
2023-01-15T15:41:51.774Z,5
2023-01-15T15:44:51.774Z,6.1
2023-01-15T15:47:51.788Z,4.6
2023-01-15T15:50:51.806Z,4
2023-01-15T15:53:51.815Z,3.5
2023-01-15T15:56:51.823Z,4.3
2023-01-15T15:59:51.853Z,4.9
2023-01-15T16:02:51.942Z,5
2023-01-15T16:05:51.877Z,4.3
2023-01-15T16:08:51.883Z,6.5
2023-01-15T16:11:52.912Z,5.1
2023-01-15T16:14:51.911Z,3.9
2023-01-15T16:17:51.924Z,3.7
2023-01-15T16:20:51.934Z,4.5
2023-01-15T16:23:51.964Z,3.9
2023-01-15T16:26:51.962Z,3.5
2023-01-15T16:29:51.976Z,3.4
2023-01-15T16:32:51.990Z,4.4
2023-01-15T16:35:52.011Z,4.1
2023-01-15T16:38:52.019Z,3.2
2023-01-15T16:41:52.052Z,3.4
2023-01-15T16:44:52.058Z,4.4
2023-01-15T16:47:52.064Z,3.8
2023-01-15T16:50:52.079Z,5.3
2023-01-15T16:53:52.097Z,3.9
2023-01-15T16:56:52.119Z,4.5
2023-01-15T16:59:52.128Z,3.3
2023-01-15T17:02:52.138Z,4.2
2023-01-15T17:05:52.153Z,2.7
2023-01-15T17:08:52.179Z,3.9
2023-01-15T17:11:52.181Z,4.4
2023-01-15T17:14:52.198Z,3.4
2023-01-15T17:17:52.221Z,5.4
2023-01-15T17:20:52.228Z,4.4
2023-01-15T17:23:52.257Z,3.8
2023-01-15T17:26:52.264Z,4.1
2023-01-15T17:29:52.288Z,4.6
2023-01-15T17:32:52.292Z,2.6
2023-01-15T17:35:52.317Z,3.7
2023-01-15T17:38:52.345Z,3.9
2023-01-15T17:41:52.343Z,4.1
2023-01-15T17:44:52.361Z,4.3
2023-01-15T17:47:52.376Z,3.6
2023-01-15T17:50:52.392Z,2.9
2023-01-15T17:53:52.409Z,5.1
2023-01-15T17:56:52.427Z,3.9
2023-01-15T17:59:52.440Z,3.7
2023-01-15T18:02:52.494Z,3.5
2023-01-15T18:05:52.484Z,4.5
2023-01-15T18:08:52.499Z,3.4
2023-01-15T18:11:52.504Z,4.5
2023-01-15T18:14:52.524Z,3.6
2023-01-15T18:17:52.537Z,3.8
2023-01-15T18:20:52.564Z,3.9
2023-01-15T18:23:52.576Z,3.5
2023-01-15T18:26:52.596Z,4.5
2023-01-15T18:29:52.819Z,3.3
2023-01-15T18:32:52.624Z,4
2023-01-15T18:35:52.636Z,4
2023-01-15T18:38:52.660Z,2.7
2023-01-15T18:41:52.665Z,3.6
2023-01-15T18:44:52.678Z,3.6
2023-01-15T18:47:52.699Z,4.6
2023-01-15T18:50:52.715Z,3.5
2023-01-15T18:53:52.734Z,5.2
2023-01-15T18:56:52.747Z,4.5
2023-01-15T18:59:52.772Z,3.2
2023-01-15T19:02:52.788Z,4.2
2023-01-15T19:05:52.799Z,4.2
2023-01-15T19:08:52.814Z,3.4
2023-01-15T19:11:52.833Z,4.6
2023-01-15T19:14:52.843Z,4.7
2023-01-15T19:17:52.856Z,4.5
2023-01-15T19:20:52.879Z,4.1
2023-01-15T19:23:52.887Z,4.1
2023-01-15T19:26:52.905Z,3.1
2023-01-15T19:29:52.930Z,4.2
2023-01-15T19:32:52.934Z,3.6
2023-01-15T19:35:52.947Z,3.1
2023-01-15T19:38:52.963Z,3.2
2023-01-15T19:41:52.982Z,3.7
2023-01-15T19:44:52.991Z,4.4
2023-01-15T19:47:53.008Z,4.3
2023-01-15T19:50:53.004Z,3.7
2023-01-15T19:53:53.004Z,3.6
2023-01-15T19:56:53.010Z,5.5
2023-01-15T19:59:53.011Z,3.7
2023-01-15T20:02:53.051Z,3.2
2023-01-15T20:05:53.013Z,3
2023-01-15T20:08:53.012Z,3.6
2023-01-15T20:11:53.014Z,4.8
2023-01-15T20:14:53.021Z,3.3
2023-01-15T20:17:53.051Z,3.2
2023-01-15T20:20:53.049Z,2.8
2023-01-15T20:23:53.033Z,4
2023-01-15T20:26:53.066Z,4
2023-01-15T20:29:53.029Z,2.5
2023-01-15T20:32:53.053Z,3.8
2023-01-15T20:35:53.037Z,3.2
2023-01-15T20:38:53.038Z,3.3
2023-01-15T20:41:53.047Z,3.6
2023-01-15T20:44:53.041Z,2.2
2023-01-15T20:47:53.047Z,3.5
2023-01-15T20:50:53.056Z,4.1
2023-01-15T20:53:53.068Z,3.5
2023-01-15T20:56:53.056Z,3.4
2023-01-15T20:59:53.054Z,3.6
2023-01-15T21:02:53.044Z,2.9
2023-01-15T21:05:53.048Z,3.9
2023-01-15T21:08:53.047Z,3.2
2023-01-15T21:11:53.070Z,2.6
2023-01-15T21:14:53.047Z,3.3
2023-01-15T21:17:53.083Z,2.6
2023-01-15T21:20:53.103Z,3.9
2023-01-15T21:23:53.100Z,3.9
2023-01-15T21:26:53.184Z,4.6
2023-01-15T21:29:53.124Z,3.2
2023-01-15T21:32:53.123Z,4.2
2023-01-15T21:35:53.118Z,3.4
2023-01-15T21:38:53.116Z,3.4
2023-01-15T21:41:53.123Z,4.9
2023-01-15T21:44:53.123Z,3.9
2023-01-15T21:47:53.148Z,2.7
2023-01-15T21:50:53.142Z,3.3
2023-01-15T21:53:53.149Z,4.2
2023-01-15T21:56:53.166Z,3.1
2023-01-15T21:59:53.140Z,3.5
2023-01-15T22:02:53.176Z,2.5
2023-01-15T22:05:53.144Z,3.9
2023-01-15T22:08:53.148Z,3.4
2023-01-15T22:11:53.163Z,2.8
2023-01-15T22:14:53.151Z,3
2023-01-15T22:17:53.152Z,2.6
2023-01-15T22:20:53.150Z,3.2
2023-01-15T22:23:53.157Z,3.7
2023-01-15T22:26:53.159Z,2.6
2023-01-15T22:29:53.155Z,2.9
2023-01-15T22:32:53.155Z,3.5
2023-01-15T22:35:53.152Z,2.5
2023-01-15T22:38:54.724Z,4.3
2023-01-15T22:41:53.164Z,3.3
2023-01-15T22:44:53.178Z,3
2023-01-15T22:47:53.157Z,3
2023-01-15T22:50:53.157Z,2.6
2023-01-15T22:53:53.178Z,2.8
2023-01-15T22:56:53.201Z,2.9
2023-01-15T22:59:53.165Z,2
2023-01-15T23:02:53.167Z,2.7
2023-01-15T23:05:53.175Z,2.6
2023-01-15T23:08:53.173Z,2.4
2023-01-15T23:11:53.190Z,2.4
2023-01-15T23:14:53.180Z,3.4
2023-01-15T23:17:53.206Z,4
2023-01-15T23:20:53.183Z,3.9
2023-01-15T23:23:53.205Z,3.3
2023-01-15T23:26:53.197Z,2.1
2023-01-15T23:29:53.190Z,2.7
2023-01-15T23:32:53.191Z,3.7
2023-01-15T23:35:53.222Z,2.8
2023-01-15T23:38:53.200Z,2.9
2023-01-15T23:41:53.228Z,4.1
2023-01-15T23:44:53.201Z,1.9
2023-01-15T23:47:53.208Z,2.7
2023-01-15T23:50:53.216Z,3.7
2023-01-15T23:53:53.257Z,3.2
2023-01-15T23:56:53.247Z,3.4
2023-01-15T23:59:53.227Z,3.3
